createdAt,value
2018-08-20T00:02:00.676Z,23.46
2018-08-20T00:04:34.888Z,23.62
2018-08-20T00:07:03.812Z,23.67
2018-08-20T00:09:38.277Z,23.51
2018-08-20T00:12:08.439Z,23.49
2018-08-20T00:14:37.576Z,23.41
2018-08-20T00:17:06.543Z,23.23
2018-08-20T00:19:35.512Z,23.25
2018-08-20T00:22:04.384Z,23.42
2018-08-20T00:24:33.352Z,23.21
2018-08-20T00:27:03.352Z,23.19
2018-08-20T00:29:32.908Z,23.27
2018-08-20T00:32:01.756Z,23.33
2018-08-20T00:34:30.703Z,23.34
2018-08-20T00:36:59.559Z,23.63
2018-08-20T00:39:28.488Z,23.28
2018-08-20T00:41:57.501Z,23.23
2018-08-20T00:44:26.371Z,23.36
2018-08-20T00:46:55.287Z,23.38
2018-08-20T00:49:24.143Z,23.28
2018-08-20T00:51:53.153Z,23.41
2018-08-20T00:54:22.151Z,23.33
2018-08-20T00:56:51.072Z,23.29
2018-08-20T00:59:19.929Z,23.31
2018-08-20T01:01:48.907Z,23.28
2018-08-20T01:04:17.803Z,23.21
2018-08-20T01:06:46.660Z,23.23
2018-08-20T01:09:15.657Z,23.34
2018-08-20T01:11:44.647Z,23.34
2018-08-20T01:14:13.545Z,23.17
2018-08-20T01:16:42.453Z,23.35
2018-08-20T01:19:11.409Z,23.39
2018-08-20T01:21:40.428Z,23.18
2018-08-20T01:24:09.302Z,23.25
2018-08-20T01:26:38.232Z,23.13
2018-08-20T01:29:07.363Z,23.03
2018-08-20T01:31:36.317Z,23.12
2018-08-20T01:34:05.247Z,23.13
2018-08-20T01:36:34.062Z,23.01
2018-08-20T01:39:02.995Z,22.98
2018-08-20T01:41:32.026Z,23.00
2018-08-20T01:44:00.976Z,22.66
2018-08-20T01:46:29.893Z,22.69
2018-08-20T01:48:58.801Z,22.71
2018-08-20T01:51:27.674Z,22.62
2018-08-20T01:53:56.620Z,22.66
2018-08-20T01:56:25.540Z,22.84
2018-08-20T01:58:54.367Z,23.06
2018-08-20T02:01:23.364Z,23.14
2018-08-20T02:03:52.228Z,22.75
2018-08-20T02:06:22.033Z,22.74
2018-08-20T02:08:50.968Z,22.87
2018-08-20T02:11:19.904Z,23.06
2018-08-20T02:13:48.861Z,23.06
2018-08-20T02:16:17.717Z,22.77
2018-08-20T02:18:46.641Z,22.61
2018-08-20T02:21:15.492Z,22.91
2018-08-20T02:23:44.420Z,22.57
2018-08-20T02:26:13.621Z,22.45
2018-08-20T02:28:42.476Z,22.57
2018-08-20T02:31:11.345Z,22.53
2018-08-20T02:33:40.211Z,22.58
2018-08-20T02:36:09.112Z,22.39
2018-08-20T02:38:37.967Z,22.54
2018-08-20T02:41:06.996Z,22.50
2018-08-20T02:43:36.859Z,22.30
2018-08-20T02:46:05.675Z,22.43
2018-08-20T02:48:34.584Z,22.29
2018-08-20T02:51:03.444Z,22.17
2018-08-20T02:53:32.314Z,22.19
2018-08-20T02:56:01.212Z,22.11
2018-08-20T02:58:30.048Z,22.13
2018-08-20T03:00:58.931Z,22.34
2018-08-20T03:03:27.855Z,22.25
2018-08-20T03:05:56.716Z,22.02
2018-08-20T03:08:25.674Z,22.26
2018-08-20T03:10:54.524Z,22.11
2018-08-20T03:13:23.458Z,22.01
2018-08-20T03:15:52.493Z,22.18
2018-08-20T03:18:21.369Z,22.29
2018-08-20T03:20:50.224Z,22.09
2018-08-20T03:23:19.148Z,22.13
2018-08-20T03:25:48.043Z,22.47
2018-08-20T03:28:17.125Z,22.80
2018-08-20T03:30:45.985Z,22.33
2018-08-20T03:33:14.861Z,22.28
2018-08-20T03:35:43.732Z,22.21
2018-08-20T03:38:12.664Z,22.15
2018-08-20T03:40:41.628Z,22.16
2018-08-20T03:43:10.568Z,22.21
2018-08-20T03:45:39.489Z,22.56
2018-08-20T03:48:08.644Z,22.22
2018-08-20T03:50:37.539Z,22.30
2018-08-20T03:53:06.526Z,22.28
2018-08-20T03:55:35.421Z,22.35
2018-08-20T03:58:04.444Z,22.34
2018-08-20T04:00:33.287Z,22.56
2018-08-20T04:03:02.209Z,22.59
2018-08-20T04:05:31.133Z,22.55
2018-08-20T04:07:59.987Z,23.00
2018-08-20T04:10:28.844Z,22.68
2018-08-20T04:12:57.840Z,22.76
2018-08-20T04:15:26.687Z,22.68
2018-08-20T04:17:55.659Z,23.00
2018-08-20T04:20:24.576Z,23.00
2018-08-20T04:22:53.556Z,22.69
2018-08-20T04:25:22.499Z,22.97
2018-08-20T04:27:51.436Z,22.88
2018-08-20T04:30:21.320Z,22.98
2018-08-20T04:32:50.172Z,23.38
2018-08-20T04:35:19.070Z,23.38
2018-08-20T04:37:48.040Z,23.71
2018-08-20T04:40:16.979Z,23.50
2018-08-20T04:42:45.799Z,23.55
2018-08-20T04:45:14.715Z,23.37
2018-08-20T04:47:43.601Z,23.65
2018-08-20T04:50:12.925Z,23.67
2018-08-20T04:52:42.068Z,23.95
2018-08-20T04:55:11.160Z,23.66
2018-08-20T04:57:40.133Z,23.96
2018-08-20T05:00:10.667Z,24.14
2018-08-20T05:02:39.681Z,23.72
2018-08-20T05:05:08.829Z,24.27
2018-08-20T05:07:37.627Z,24.46
2018-08-20T05:10:06.646Z,24.20
2018-08-20T05:12:35.596Z,24.65
2018-08-20T05:15:04.605Z,24.57
2018-08-20T05:17:33.475Z,24.55
2018-08-20T05:20:02.416Z,24.58
2018-08-20T05:22:31.303Z,25.02
2018-08-20T05:25:00.202Z,24.99
2018-08-20T05:27:29.085Z,24.66
2018-08-20T05:29:58.584Z,24.96
2018-08-20T05:32:27.424Z,25.08
2018-08-20T05:34:56.284Z,25.07
2018-08-20T05:37:25.156Z,24.91
2018-08-20T05:39:53.959Z,25.46
2018-08-20T05:42:23.503Z,25.45
2018-08-20T05:44:52.478Z,25.28
2018-08-20T05:47:21.359Z,25.49
2018-08-20T05:49:50.273Z,25.63
2018-08-20T05:52:19.071Z,25.90
2018-08-20T05:54:47.960Z,26.14
2018-08-20T05:57:16.945Z,26.27
2018-08-20T05:59:45.900Z,25.85
2018-08-20T06:02:14.912Z,25.91
2018-08-20T06:04:43.935Z,26.02
2018-08-20T06:07:13.732Z,26.43
2018-08-20T06:09:42.708Z,26.21
2018-08-20T06:12:11.539Z,26.30
2018-08-20T06:14:40.577Z,26.57
2018-08-20T06:17:09.509Z,26.61
2018-08-20T06:19:38.480Z,26.56
2018-08-20T06:22:07.442Z,26.89
2018-08-20T06:24:36.324Z,26.86
2018-08-20T06:27:05.301Z,26.93
2018-08-20T06:29:34.276Z,27.20
2018-08-20T06:32:03.177Z,26.64
2018-08-20T06:34:32.087Z,26.71
2018-08-20T06:37:00.904Z,26.83
2018-08-20T06:39:29.776Z,26.94
2018-08-20T06:41:58.845Z,26.98
2018-08-20T06:44:27.715Z,27.49
2018-08-20T06:46:56.560Z,27.39
2018-08-20T06:49:25.431Z,27.33
2018-08-20T06:51:54.279Z,27.38
2018-08-20T06:54:23.161Z,27.21
2018-08-20T06:56:52.168Z,27.31
2018-08-20T06:59:21.065Z,27.18
2018-08-20T07:01:49.981Z,27.37
2018-08-20T07:04:18.916Z,27.80
2018-08-20T07:06:47.850Z,27.89
2018-08-20T07:09:16.929Z,27.79
2018-08-20T07:11:46.803Z,27.68
2018-08-20T07:14:16.601Z,27.37
2018-08-20T07:16:45.536Z,27.78
2018-08-20T07:19:14.440Z,27.76
2018-08-20T07:21:43.356Z,27.44
2018-08-20T07:24:12.312Z,27.69
2018-08-20T07:26:41.230Z,27.57
2018-08-20T07:29:10.118Z,27.37
2018-08-20T07:31:39.036Z,27.90
2018-08-20T07:34:08.075Z,27.43
2018-08-20T07:36:36.861Z,27.62
2018-08-20T07:39:06.180Z,27.75
2018-08-20T07:41:35.176Z,27.89
2018-08-20T07:44:04.100Z,28.05
2018-08-20T07:46:32.973Z,28.08
2018-08-20T07:49:06.058Z,28.19
2018-08-20T07:51:34.980Z,28.64
2018-08-20T07:54:04.116Z,28.61
2018-08-20T07:56:32.956Z,28.64
2018-08-20T07:59:01.834Z,28.88
2018-08-20T08:01:30.740Z,28.78
2018-08-20T08:03:59.780Z,29.00
2018-08-20T08:06:28.679Z,29.14
2018-08-20T08:08:57.708Z,28.88
2018-08-20T08:11:26.616Z,28.95
2018-08-20T08:13:55.501Z,28.85
2018-08-20T08:16:24.588Z,28.86
2018-08-20T08:18:53.599Z,28.74
2018-08-20T08:21:22.541Z,28.92
2018-08-20T08:23:51.585Z,29.13
2018-08-20T08:26:20.478Z,28.50
2018-08-20T08:28:49.371Z,28.80
2018-08-20T08:31:18.889Z,29.06
2018-08-20T08:33:47.760Z,28.85
2018-08-20T08:36:16.712Z,28.59
2018-08-20T08:38:45.736Z,29.01
2018-08-20T08:41:14.652Z,28.89
2018-08-20T08:43:44.188Z,29.02
2018-08-20T08:46:13.160Z,28.98
2018-08-20T08:48:42.084Z,28.86
2018-08-20T08:51:11.096Z,28.70
2018-08-20T08:53:39.963Z,28.98
2018-08-20T08:56:08.872Z,28.98
2018-08-20T08:58:37.836Z,28.80
2018-08-20T09:01:06.719Z,28.90
2018-08-20T09:03:35.620Z,29.16
2018-08-20T09:06:04.700Z,28.96
2018-08-20T09:08:33.616Z,29.27
2018-08-20T09:11:02.543Z,29.34
2018-08-20T09:13:31.520Z,29.28
2018-08-20T09:16:00.416Z,29.19
2018-08-20T09:18:29.532Z,29.08
2018-08-20T09:20:59.188Z,28.94
2018-08-20T09:23:28.088Z,28.87
2018-08-20T09:25:56.983Z,28.79
2018-08-20T09:28:26.008Z,28.69
2018-08-20T09:30:54.895Z,28.80
2018-08-20T09:33:23.724Z,28.65
2018-08-20T09:35:52.651Z,28.80
2018-08-20T09:38:21.776Z,29.05
2018-08-20T09:40:50.680Z,28.82
2018-08-20T09:43:19.583Z,28.46
2018-08-20T09:45:48.533Z,28.92
2018-08-20T09:48:18.268Z,28.71
2018-08-20T09:50:47.308Z,28.38
2018-08-20T09:53:16.321Z,28.91
2018-08-20T09:55:45.148Z,29.08
2018-08-20T09:58:14.088Z,28.75
2018-08-20T10:00:42.924Z,29.14
2018-08-20T10:03:11.984Z,29.11
2018-08-20T10:05:41.127Z,28.99
2018-08-20T10:08:10.357Z,28.70
2018-08-20T10:10:39.235Z,28.50
2018-08-20T10:13:08.169Z,28.71
2018-08-20T10:15:37.088Z,28.27
2018-08-20T10:18:06.443Z,28.80
2018-08-20T10:20:35.356Z,28.83
2018-08-20T10:23:04.305Z,28.84
2018-08-20T10:25:33.195Z,28.69
2018-08-20T10:28:02.069Z,28.70
2018-08-20T10:30:31.016Z,28.59
2018-08-20T10:33:00.058Z,28.66
2018-08-20T10:35:29.012Z,28.31
2018-08-20T10:37:57.937Z,28.36
2018-08-20T10:40:28.016Z,28.51
2018-08-20T10:42:56.960Z,28.29
2018-08-20T10:45:30.944Z,28.21
2018-08-20T10:47:59.891Z,28.32
2018-08-20T10:50:28.747Z,28.21
2018-08-20T10:52:57.639Z,28.31
2018-08-20T10:55:26.482Z,28.15
2018-08-20T10:57:55.349Z,28.15
2018-08-20T11:00:24.304Z,28.27
2018-08-20T11:02:53.208Z,28.51
2018-08-20T11:05:22.236Z,28.43
2018-08-20T11:07:51.152Z,28.30
2018-08-20T11:10:20.016Z,28.26
2018-08-20T11:12:48.920Z,28.41
2018-08-20T11:15:17.773Z,27.96
2018-08-20T11:17:46.782Z,27.93
2018-08-20T11:20:16.788Z,28.02
2018-08-20T11:22:45.965Z,28.07
2018-08-20T11:25:14.920Z,28.10
2018-08-20T11:27:43.911Z,28.39
2018-08-20T11:30:13.981Z,28.40
2018-08-20T11:32:42.870Z,28.15
2018-08-20T11:35:12.244Z,28.32
2018-08-20T11:37:41.194Z,28.37
2018-08-20T11:40:10.441Z,28.20
2018-08-20T11:42:39.510Z,28.18
2018-08-20T11:45:10.728Z,28.32
2018-08-20T11:47:39.610Z,28.43
2018-08-20T11:50:08.635Z,28.37
2018-08-20T11:52:38.201Z,28.14
2018-08-20T11:55:07.134Z,28.11
2018-08-20T11:57:36.213Z,28.23
2018-08-20T12:00:06.200Z,28.52
2018-08-20T12:02:35.181Z,28.20
2018-08-20T12:05:04.277Z,28.23
2018-08-20T12:07:33.258Z,28.39
2018-08-20T12:10:02.188Z,28.42
2018-08-20T12:12:31.156Z,28.46
2018-08-20T12:15:00.024Z,28.59
2018-08-20T12:17:28.926Z,28.51
2018-08-20T12:19:57.856Z,28.68
2018-08-20T12:22:26.840Z,28.42
2018-08-20T12:24:55.639Z,28.54
2018-08-20T12:27:24.637Z,28.52
2018-08-20T12:29:53.604Z,28.51
2018-08-20T12:32:22.663Z,28.43
2018-08-20T12:34:51.579Z,28.52
2018-08-20T12:37:20.649Z,28.37
2018-08-20T12:39:49.652Z,28.56
2018-08-20T12:42:18.726Z,28.74
2018-08-20T12:44:47.772Z,28.78
2018-08-20T12:47:16.812Z,28.70
2018-08-20T12:49:46.010Z,28.99
2018-08-20T12:52:14.831Z,28.94
2018-08-20T12:54:43.767Z,28.77
2018-08-20T12:57:12.705Z,29.03
2018-08-20T12:59:41.576Z,29.05
2018-08-20T13:02:10.432Z,28.86
2018-08-20T13:04:39.336Z,29.14
2018-08-20T13:07:08.406Z,28.97
2018-08-20T13:09:37.400Z,29.22
2018-08-20T13:12:06.566Z,28.85
2018-08-20T13:14:35.542Z,29.18
2018-08-20T13:17:04.750Z,29.04
2018-08-20T13:19:33.631Z,29.05
2018-08-20T13:22:02.546Z,29.12
2018-08-20T13:24:31.502Z,28.99
2018-08-20T13:27:00.507Z,29.31
2018-08-20T13:29:29.700Z,28.99
2018-08-20T13:31:58.543Z,29.20
2018-08-20T13:34:27.724Z,29.33
2018-08-20T13:36:56.800Z,29.49
2018-08-20T13:39:25.788Z,29.21
2018-08-20T13:41:54.880Z,29.14
2018-08-20T13:44:24.050Z,28.93
2018-08-20T13:46:52.942Z,29.02
2018-08-20T13:49:21.792Z,29.13
2018-08-20T13:51:51.824Z,29.15
2018-08-20T13:54:20.752Z,29.30
2018-08-20T13:56:49.661Z,29.25
2018-08-20T13:59:18.591Z,29.88
2018-08-20T14:01:48.329Z,31.07
2018-08-20T14:04:17.277Z,31.27
2018-08-20T14:06:46.164Z,31.20
2018-08-20T14:09:15.092Z,31.67
2018-08-20T14:11:44.060Z,32.36
2018-08-20T14:14:12.905Z,32.07
2018-08-20T14:16:41.856Z,32.70
2018-08-20T14:19:10.900Z,31.58
2018-08-20T14:21:40.372Z,32.51
2018-08-20T14:24:09.340Z,32.56
2018-08-20T14:26:38.173Z,32.45
2018-08-20T14:29:07.097Z,32.24
2018-08-20T14:31:36.059Z,32.47
2018-08-20T14:34:05.076Z,31.74
2018-08-20T14:36:33.989Z,32.59
2018-08-20T14:39:02.923Z,32.97
2018-08-20T14:41:31.888Z,32.63
2018-08-20T14:44:00.735Z,32.01
2018-08-20T14:46:29.640Z,32.52
2018-08-20T14:48:58.504Z,32.79
2018-08-20T14:51:27.461Z,32.22
2018-08-20T14:53:56.379Z,32.78
2018-08-20T14:56:25.288Z,33.25
2018-08-20T14:58:54.300Z,33.11
2018-08-20T15:01:23.262Z,33.15
2018-08-20T15:03:58.482Z,33.43
2018-08-20T15:06:27.440Z,32.96
2018-08-20T15:08:56.402Z,32.74
2018-08-20T15:11:25.368Z,32.81
2018-08-20T15:13:54.296Z,32.92
2018-08-20T15:16:23.236Z,32.21
2018-08-20T15:18:52.198Z,32.16
2018-08-20T15:21:21.015Z,32.41
2018-08-20T15:23:50.037Z,31.89
2018-08-20T15:26:18.961Z,32.19
2018-08-20T15:28:47.896Z,33.00
2018-08-20T15:31:17.480Z,33.21
2018-08-20T15:33:46.332Z,32.74
2018-08-20T15:36:15.436Z,32.06
2018-08-20T15:38:44.344Z,32.26
2018-08-20T15:41:13.483Z,32.50
2018-08-20T15:43:42.356Z,32.19
2018-08-20T15:46:11.284Z,32.32
2018-08-20T15:48:40.149Z,32.12
2018-08-20T15:51:09.100Z,31.50
2018-08-20T15:53:37.980Z,32.01
2018-08-20T15:56:06.905Z,32.11
2018-08-20T15:58:36.312Z,31.77
2018-08-20T16:01:05.189Z,31.88
2018-08-20T16:03:34.152Z,32.22
2018-08-20T16:06:03.080Z,32.60
2018-08-20T16:08:32.276Z,32.23
2018-08-20T16:11:01.170Z,31.77
2018-08-20T16:13:30.084Z,31.10
2018-08-20T16:15:59.087Z,31.00
2018-08-20T16:18:28.005Z,31.34
2018-08-20T16:20:56.924Z,30.64
2018-08-20T16:23:25.870Z,30.83
2018-08-20T16:25:54.700Z,30.25
2018-08-20T16:28:23.711Z,30.30
2018-08-20T16:30:52.534Z,29.45
2018-08-20T16:33:21.594Z,29.45
2018-08-20T16:35:50.688Z,29.38
2018-08-20T16:38:19.483Z,29.88
2018-08-20T16:40:48.396Z,29.70
2018-08-20T16:43:17.364Z,28.91
2018-08-20T16:45:46.242Z,28.71
2018-08-20T16:48:15.124Z,28.35
2018-08-20T16:50:44.951Z,28.03
2018-08-20T16:53:14.151Z,27.72
2018-08-20T16:55:43.185Z,27.93
2018-08-20T16:58:12.070Z,27.20
2018-08-20T17:00:41.068Z,27.04
2018-08-20T17:03:11.495Z,26.77
2018-08-20T17:05:50.576Z,26.19
2018-08-20T17:08:23.684Z,26.43
2018-08-20T17:10:52.932Z,26.23
2018-08-20T17:13:21.865Z,26.01
2018-08-20T17:15:50.836Z,25.99
2018-08-20T17:18:19.790Z,25.78
2018-08-20T17:20:48.942Z,26.14
2018-08-20T17:23:21.052Z,25.89
2018-08-20T17:25:50.121Z,25.82
2018-08-20T17:28:23.596Z,26.06
2018-08-20T17:30:57.206Z,25.99
2018-08-20T17:33:26.328Z,26.10
2018-08-20T17:35:55.293Z,25.76
2018-08-20T17:38:24.092Z,25.88
2018-08-20T17:40:52.967Z,25.88
2018-08-20T17:43:21.852Z,25.93
2018-08-20T17:45:50.986Z,25.75
2018-08-20T17:48:25.043Z,25.77
2018-08-20T17:50:53.945Z,25.97
2018-08-20T17:53:22.833Z,25.64
2018-08-20T17:55:51.744Z,25.68
2018-08-20T17:58:20.688Z,25.79
2018-08-20T18:00:53.448Z,25.69
2018-08-20T18:03:26.408Z,25.66
2018-08-20T18:06:06.355Z,25.73
2018-08-20T18:08:35.616Z,25.65
2018-08-20T18:11:05.085Z,25.75
2018-08-20T18:13:44.997Z,25.71
2018-08-20T18:16:17.985Z,25.80
2018-08-20T18:18:49.944Z,25.72
2018-08-20T18:21:19.083Z,25.58
2018-08-20T18:23:48.020Z,25.48
2018-08-20T18:26:17.216Z,25.58
2018-08-20T18:28:51.944Z,25.27
2018-08-20T18:31:23.433Z,25.07
2018-08-20T18:33:52.380Z,24.96
2018-08-20T18:36:23.247Z,25.32
2018-08-20T18:39:00.836Z,25.11
2018-08-20T18:42:20.612Z,24.99
2018-08-20T18:44:50.091Z,24.89
2018-08-20T18:47:19.658Z,24.81
2018-08-20T18:49:53.608Z,24.64
2018-08-20T18:52:23.485Z,24.81
2018-08-20T18:54:53.459Z,24.87
2018-08-20T18:57:24.664Z,24.36
2018-08-20T18:59:54.452Z,24.14
2018-08-20T19:02:36.712Z,23.97
2018-08-20T19:05:07.396Z,24.40
2018-08-20T19:07:36.325Z,23.80
2018-08-20T19:10:06.877Z,23.58
2018-08-20T19:12:35.805Z,23.65
2018-08-20T19:17:28.201Z,23.68
2018-08-20T19:20:01.540Z,23.50
2018-08-20T19:22:31.028Z,23.44
2018-08-20T19:24:59.984Z,23.32
2018-08-20T19:27:30.220Z,23.42
2018-08-20T19:30:03.067Z,23.46
2018-08-20T19:32:31.951Z,23.64
2018-08-20T19:35:00.844Z,23.43
2018-08-20T19:37:29.647Z,23.38
2018-08-20T19:39:58.489Z,23.54
2018-08-20T19:42:33.369Z,23.42
2018-08-20T19:45:03.277Z,23.73
2018-08-20T19:47:32.132Z,23.44
2018-08-20T19:50:01.240Z,23.32
2018-08-20T19:52:30.253Z,23.38
2018-08-20T19:55:07.033Z,23.34
2018-08-20T19:57:36.241Z,23.33
2018-08-20T20:00:07.627Z,23.35
2018-08-20T20:02:36.696Z,23.17
2018-08-20T20:05:06.800Z,23.26
2018-08-20T20:07:37.084Z,23.40
2018-08-20T20:10:13.900Z,23.17
2018-08-20T20:12:47.911Z,23.64
2018-08-20T20:15:16.892Z,23.55
2018-08-20T20:17:45.776Z,23.21
2018-08-20T20:20:14.639Z,23.23
2018-08-20T20:22:43.748Z,23.30
2018-08-20T20:25:12.676Z,23.61
2018-08-20T20:27:41.643Z,23.60
2018-08-20T20:30:10.568Z,23.41
2018-08-20T20:32:39.540Z,23.44
2018-08-20T20:35:09.849Z,23.42
2018-08-20T20:37:38.816Z,23.75
2018-08-20T20:40:08.125Z,23.47
2018-08-20T20:42:37.032Z,23.40
2018-08-20T20:45:05.947Z,23.29
2018-08-20T20:47:34.966Z,23.30
2018-08-20T20:50:03.884Z,23.36
2018-08-20T20:52:32.789Z,23.17
2018-08-20T20:55:01.773Z,23.00
2018-08-20T20:57:30.753Z,22.89
2018-08-20T20:59:59.796Z,23.07
2018-08-20T21:02:28.605Z,23.23
2018-08-20T21:05:01.620Z,23.13
2018-08-20T21:07:33.633Z,23.09
2018-08-20T21:10:02.619Z,22.98
2018-08-20T21:12:32.297Z,23.06
2018-08-20T21:15:01.476Z,22.83
2018-08-20T21:17:34.068Z,22.58
2018-08-20T21:20:03.284Z,22.32
2018-08-20T21:22:33.436Z,22.49
2018-08-20T21:25:02.275Z,22.23
2018-08-20T21:27:31.200Z,22.40
2018-08-20T21:30:01.234Z,22.32
2018-08-20T21:32:30.312Z,21.98
2018-08-20T21:34:59.228Z,21.91
2018-08-20T21:37:28.151Z,22.11
2018-08-20T21:39:57.106Z,21.86
2018-08-20T21:42:32.180Z,22.00
2018-08-20T21:45:01.081Z,21.83
2018-08-20T21:47:31.266Z,21.99
2018-08-20T21:50:00.315Z,22.00
2018-08-20T21:52:29.288Z,21.53
2018-08-20T21:54:58.145Z,21.82
2018-08-20T21:57:27.223Z,21.84
2018-08-20T22:00:03.408Z,21.61
2018-08-20T22:02:33.216Z,21.50
2018-08-20T22:05:02.264Z,21.68
2018-08-20T22:07:31.211Z,21.70
2018-08-20T22:10:00.268Z,21.71
2018-08-20T22:12:29.203Z,21.86
2018-08-20T22:14:58.116Z,21.85
2018-08-20T22:17:30.880Z,21.74
2018-08-20T22:20:00.131Z,21.47
2018-08-20T22:22:29.151Z,21.30
2018-08-20T22:25:01.011Z,21.31
2018-08-20T22:27:31.300Z,21.55
2018-08-20T22:30:03.188Z,21.54
2018-08-20T22:32:33.588Z,21.21
2018-08-20T22:35:02.544Z,21.29
2018-08-20T22:37:31.581Z,21.56
2018-08-20T22:40:07.588Z,21.49
2018-08-20T22:42:46.790Z,21.34
2018-08-20T22:45:16.763Z,21.02
2018-08-20T22:47:46.476Z,21.11
2018-08-20T22:50:15.417Z,21.35
2018-08-20T22:52:45.505Z,21.32
2018-08-20T22:55:16.004Z,21.16
2018-08-20T22:57:51.900Z,20.99
2018-08-20T23:00:23.520Z,21.33
2018-08-20T23:02:53.650Z,21.10
2018-08-20T23:05:22.751Z,21.24
2018-08-20T23:07:51.902Z,20.94
2018-08-20T23:10:20.892Z,21.04
2018-08-20T23:12:51.219Z,21.22
2018-08-20T23:15:20.180Z,21.32
2018-08-20T23:17:49.105Z,21.36
2018-08-20T23:20:23.285Z,21.00
2018-08-20T23:22:52.131Z,21.19
2018-08-20T23:25:20.968Z,21.16
2018-08-20T23:27:51.126Z,20.98
2018-08-20T23:30:20.403Z,21.17
2018-08-20T23:32:49.524Z,21.02
2018-08-20T23:35:18.376Z,21.20
2018-08-20T23:37:47.252Z,21.05
2018-08-20T23:40:16.092Z,21.07
2018-08-20T23:42:45.068Z,21.12
2018-08-20T23:45:14.113Z,21.12
2018-08-20T23:47:42.935Z,21.22
2018-08-20T23:50:11.844Z,21.33
2018-08-20T23:52:40.683Z,21.11
2018-08-20T23:55:09.656Z,21.12
2018-08-20T23:57:38.605Z,21.20
